Time;durP1;ratioP1;P1;durP2;ratioP2;P2;SDS_P1;SDS_P2;PMS_P1;PMS_P2;Temp;Humidity;BMP_temperature;BMP_pressure;BME280_temperature;BME280_humidity;BME280_pressure;Samples;Min_cycle;Max_cycle;Signal;HPM_P1;HPM_P2
2023/01/03 00:01:59;;;;;;;23.58;16.05;;;;;;;4.52;100.00;102475.47;4954434;29;20376;-81
2023/01/03 00:04:25;;;;;;;24.95;15.27;;;;;;;4.99;100.00;102569.59;4957130;28;20423;-85
2023/01/03 00:06:52;;;;;;;25.40;15.75;;;;;;;4.92;100.00;102567.13;4958161;29;20027;-79
2023/01/03 00:09:20;;;;;;;23.45;15.95;;;;;;;4.67;100.00;102531.59;4940044;29;20051;-86
2023/01/03 00:14:34;;;;;;;23.63;15.93;;;;;;;4.56;100.00;102533.41;4958591;29;20114;-81
2023/01/03 00:17:01;;;;;;;26.52;16.58;;;;;;;4.64;100.00;102561.50;4940942;29;20032;-81
2023/01/03 00:19:35;;;;;;;24.63;17.08;;;;;;;4.56;100.00;102564.97;4957970;29;20093;-84
2023/01/03 00:22:00;;;;;;;21.35;16.40;;;;;;;4.36;100.00;102540.44;4940685;29;20031;-87
2023/01/03 00:24:26;;;;;;;26.20;16.70;;;;;;;4.47;100.00;102571.88;4957715;29;20050;-83
2023/01/03 00:26:51;;;;;;;24.58;17.45;;;;;;;4.27;100.00;102543.94;4957737;29;20035;-86
2023/01/03 00:29:17;;;;;;;28.55;18.45;;;;;;;4.32;100.00;102550.69;4957713;29;20225;-82
2023/01/03 00:31:42;;;;;;;26.17;18.60;;;;;;;4.32;100.00;102565.19;4957871;29;20395;-86
2023/01/03 00:34:08;;;;;;;28.45;17.70;;;;;;;4.26;100.00;102566.09;4957796;29;20172;-81
2023/01/03 00:36:35;;;;;;;23.83;16.70;;;;;;;4.07;100.00;102544.13;4957555;29;20030;-86
2023/01/03 00:39:01;;;;;;;28.45;18.10;;;;;;;4.15;100.00;102567.91;4957672;29;20023;-81
2023/01/03 00:41:26;;;;;;;25.05;16.85;;;;;;;3.85;100.00;102524.72;4957771;29;20125;-82
2023/01/03 00:43:52;;;;;;;29.05;16.58;;;;;;;4.06;100.00;102568.00;4940588;29;20035;-81
2023/01/03 00:46:19;;;;;;;24.85;17.48;;;;;;;4.05;100.00;102570.56;4957562;29;20101;-85
2023/01/03 00:48:45;;;;;;;28.88;17.15;;;;;;;3.89;100.00;102544.25;4957488;29;20031;-81
2023/01/03 00:51:14;;;;;;;25.35;17.80;;;;;;;3.95;100.00;102562.13;4957318;29;20050;-84
2023/01/03 00:53:41;;;;;;;32.03;18.17;;;;;;;3.80;100.00;102539.22;4957273;29;20031;-83
2023/01/03 00:56:09;;;;;;;34.70;17.52;;;;;;;3.95;100.00;102574.91;4940136;29;20030;-81
2023/01/03 00:58:35;;;;;;;29.58;18.55;;;;;;;3.73;100.00;102544.34;4957244;29;20030;-78
2023/01/03 01:01:10;;;;;;;27.58;17.50;;;;;;;3.78;100.00;102566.50;4957379;29;20035;-80
2023/01/03 01:03:37;;;;;;;30.33;18.05;;;;;;;3.50;100.00;102535.16;4957124;29;20035;-80
2023/01/03 01:06:22;;;;;;;27.98;17.98;;;;;;;3.77;100.00;102582.69;4956852;29;20383;-80
2023/01/03 01:08:49;;;;;;;27.42;17.48;;;;;;;3.71;100.00;102589.53;4957142;29;20040;-81
2023/01/03 01:11:16;;;;;;;26.10;17.52;;;;;;;3.56;100.00;102576.84;4957207;29;20037;-80
2023/01/03 01:13:43;;;;;;;25.90;18.38;;;;;;;3.52;100.00;102576.88;4957005;29;20513;-79
2023/01/03 01:16:15;;;;;;;26.27;17.02;;;;;;;3.48;100.00;102577.75;4956341;28;20114;-79
2023/01/03 01:18:42;;;;;;;24.52;16.88;;;;;;;3.53;100.00;102599.00;4956705;29;20030;-80
2023/01/03 01:21:11;;;;;;;28.30;17.08;;;;;;;3.49;100.00;102595.63;4938813;29;20135;-80
2023/01/03 01:23:38;;;;;;;27.65;18.00;;;;;;;3.29;100.00;102554.88;4957036;29;20025;-80
2023/01/03 01:26:05;;;;;;;27.40;16.67;;;;;;;3.51;100.00;102599.00;4956908;29;20027;-79
2023/01/03 01:28:31;;;;;;;24.75;16.85;;;;;;;3.55;100.00;102604.97;4956595;29;20037;-80
2023/01/03 01:30:59;;;;;;;25.63;16.15;;;;;;;3.38;100.00;102592.28;4939737;29;20027;-80
2023/01/03 01:33:24;;;;;;;25.08;15.60;;;;;;;3.38;100.00;102611.00;4956539;29;20023;-80
2023/01/03 01:35:49;;;;;;;24.88;15.77;;;;;;;3.34;100.00;102616.09;4956842;29;20038;-80
2023/01/03 01:38:15;;;;;;;27.83;16.45;;;;;;;3.30;100.00;102612.72;4956789;29;20094;-80
2023/01/03 01:40:40;;;;;;;25.40;15.90;;;;;;;3.18;100.00;102605.13;4938969;29;20058;-81
2023/01/03 01:46:31;;;;;;;21.17;16.02;;;;;;;3.11;100.00;102619.59;4956801;29;20046;-81
2023/01/03 01:49:11;;;;;;;25.17;16.30;;;;;;;2.85;100.00;102591.63;4956359;29;20059;-80
2023/01/03 01:51:37;;;;;;;25.85;16.25;;;;;;;2.96;100.00;102626.47;4956267;29;20547;-86
2023/01/03 01:54:05;;;;;;;22.27;15.77;;;;;;;2.62;100.00;102580.59;4956336;29;20035;-85
2023/01/03 01:56:35;;;;;;;26.63;15.80;;;;;;;2.88;100.00;102640.09;4955952;29;20471;-84
2023/01/03 01:59:02;;;;;;;27.90;16.98;;;;;;;2.90;100.00;102645.19;4956283;29;20039;-86
2023/01/03 02:01:29;;;;;;;25.50;17.42;;;;;;;2.66;100.00;102604.44;4956283;29;20119;-82
2023/01/03 02:04:02;;;;;;;24.20;16.02;;;;;;;2.84;100.00;102646.03;4956228;29;20036;-86
2023/01/03 02:06:30;;;;;;;27.02;16.25;;;;;;;2.83;100.00;102648.59;4955914;29;20027;-84
2023/01/03 02:08:56;;;;;;;25.63;17.52;;;;;;;2.45;100.00;102587.44;4955851;29;20047;-85
2023/01/03 02:11:36;;;;;;;28.40;17.25;;;;;;;2.80;100.00;102639.25;4956093;29;20082;-86
2023/01/03 02:14:31;;;;;;;29.35;17.05;;;;;;;2.74;100.00;102636.69;4955906;29;20038;-85
2023/01/03 02:17:15;;;;;;;27.20;16.75;;;;;;;2.67;100.00;102640.13;4955773;29;20038;-85
2023/01/03 02:20:07;;;;;;;23.38;15.60;;;;;;;2.61;100.00;102645.22;4955761;29;20391;-85
2023/01/03 02:22:44;;;;;;;22.65;15.05;;;;;;;2.51;100.00;102643.53;4955961;29;20031;-86
2023/01/03 02:25:27;;;;;;;21.25;15.00;;;;;;;2.41;100.00;102641.84;4955679;29;20019;-86
2023/01/03 02:28:11;;;;;;;27.08;15.02;;;;;;;2.34;100.00;102640.97;4954519;28;20031;-85
2023/01/03 02:30:50;;;;;;;23.33;15.13;;;;;;;2.16;100.00;102623.97;4955273;29;20073;-85
2023/01/03 02:33:44;;;;;;;23.42;13.85;;;;;;;2.18;100.00;102641.84;4955530;29;20031;-86
2023/01/03 02:36:31;;;;;;;19.10;13.32;;;;;;;2.07;100.00;102635.88;4955567;29;20031;-85
2023/01/03 02:39:26;;;;;;;26.25;15.40;;;;;;;2.04;100.00;102630.75;4955313;29;20460;-86
2023/01/03 02:45:19;;;;;;;22.63;15.45;;;;;;;1.98;100.00;102627.38;4877336;29;20032;-86
2023/01/03 02:47:50;;;;;;;28.17;16.80;;;;;;;2.09;100.00;102636.72;4822539;29;20046;-87
2023/01/03 02:50:17;;;;;;;28.70;17.42;;;;;;;1.85;100.00;102595.06;4822347;29;20099;-84
2023/01/03 02:52:45;;;;;;;29.27;17.67;;;;;;;1.87;100.00;102584.88;4822315;29;20050;-84
2023/01/03 02:55:18;;;;;;;31.85;18.80;;;;;;;2.21;100.00;102639.28;4822430;29;20058;-85
2023/01/03 02:57:50;;;;;;;30.58;18.98;;;;;;;2.16;100.00;102629.06;4822340;29;20038;-85
2023/01/03 03:00:20;;;;;;;28.65;18.30;;;;;;;2.17;100.00;102638.44;4822152;29;20099;-84
2023/01/03 03:02:51;;;;;;;29.60;17.92;;;;;;;2.16;100.00;102640.97;4822241;29;20111;-86
2023/01/03 03:05:41;;;;;;;32.80;19.13;;;;;;;2.15;100.00;102629.91;4822236;29;20103;-86
2023/01/03 03:08:06;;;;;;;32.30;18.15;;;;;;;2.15;100.00;102637.56;4822033;29;20054;-85
2023/01/03 03:13:40;;;;;;;26.70;16.63;;;;;;;2.16;100.00;102640.97;4822408;29;20132;-87
2023/01/03 03:16:46;;;;;;;27.67;17.52;;;;;;;2.12;100.00;102639.28;4821999;29;20539;-85
2023/01/03 03:25:11;;;;;;;28.00;17.42;;;;;;;2.00;100.00;102614.63;4929891;29;20053;-84
2023/01/03 03:30:27;;;;;;;32.13;17.77;;;;;;;2.14;100.00;102640.13;4954724;29;20042;-80
2023/01/03 03:32:57;;;;;;;31.05;17.27;;;;;;;2.14;100.00;102635.03;4954752;29;20068;-81
2023/01/03 03:35:24;;;;;;;32.20;17.38;;;;;;;1.99;100.00;102615.47;4954899;29;20027;-81
2023/01/03 03:37:54;;;;;;;29.77;17.85;;;;;;;2.11;100.00;102638.41;4954300;29;20498;-82
2023/01/03 03:46:14;;;;;;;26.83;16.45;;;;;;;1.81;100.00;102597.63;4954653;29;20039;-82
2023/01/03 03:51:41;;;;;;;32.47;17.30;;;;;;;1.68;100.00;102578.94;4954730;29;20043;-84
2023/01/03 03:54:11;;;;;;;31.35;16.95;;;;;;;1.79;100.00;102600.16;4954170;29;20057;-84
2023/01/03 03:56:39;;;;;;;27.13;16.10;;;;;;;1.93;100.00;102621.41;4954578;29;20033;-81
2023/01/03 03:59:07;;;;;;;32.85;15.68;;;;;;;1.99;100.00;102640.97;4954584;29;20027;-81
2023/01/03 04:01:37;;;;;;;29.88;16.80;;;;;;;1.95;100.00;102639.22;4954227;29;20043;-81
2023/01/03 04:04:10;;;;;;;29.40;16.63;;;;;;;1.62;100.00;102592.47;4954374;29;20023;-83
2023/01/03 04:06:49;;;;;;;35.40;16.40;;;;;;;1.80;100.00;102612.06;4954326;29;20031;-81
2023/01/03 04:09:15;;;;;;;28.20;15.43;;;;;;;1.97;100.00;102643.50;4953988;29;20130;-80
2023/01/03 04:11:41;;;;;;;29.88;15.88;;;;;;;1.77;100.00;102609.50;4954318;29;20118;-81
2023/01/03 04:14:06;;;;;;;29.77;15.90;;;;;;;1.78;100.00;102613.75;4954454;29;20038;-81
2023/01/03 04:16:32;;;;;;;31.02;16.38;;;;;;;2.02;100.00;102643.50;4954023;29;20055;-81
2023/01/03 04:18:57;;;;;;;29.15;16.15;;;;;;;1.64;100.00;102583.16;4954371;29;20109;-81
2023/01/03 04:21:22;;;;;;;31.55;15.73;;;;;;;1.51;100.00;102560.22;4953995;29;20039;-81
2023/01/03 04:23:48;;;;;;;31.73;16.40;;;;;;;1.57;100.00;102573.78;4967322;23;20045;-82
2023/01/03 04:26:13;;;;;;;29.30;15.65;;;;;;;1.68;100.00;102589.13;4954345;29;20066;-81
2023/01/03 04:28:38;;;;;;;26.48;15.50;;;;;;;1.92;100.00;102635.00;4954242;29;20475;-81
2023/01/03 04:31:04;;;;;;;31.20;16.52;;;;;;;1.90;100.00;102634.16;4953957;29;20107;-81
2023/01/03 04:33:29;;;;;;;28.50;15.20;;;;;;;1.90;100.00;102635.84;4954217;29;20356;-80
2023/01/03 04:35:55;;;;;;;29.63;16.25;;;;;;;1.91;100.00;102633.28;4954135;29;20043;-80
2023/01/03 04:38:20;;;;;;;34.15;16.13;;;;;;;1.86;100.00;102641.75;4953995;29;20074;-80
2023/01/03 04:40:45;;;;;;;26.67;15.32;;;;;;;1.86;100.00;102649.41;4953905;29;20466;-81
2023/01/03 04:45:55;;;;;;;26.05;14.63;;;;;;;1.84;100.00;102648.56;4953996;29;20123;-87
2023/01/03 04:48:20;;;;;;;28.17;15.10;;;;;;;1.84;100.00;102646.00;4953965;29;20050;-85
2023/01/03 04:50:59;;;;;;;25.25;15.05;;;;;;;1.41;100.00;102570.38;4955219;28;20034;-81
2023/01/03 04:53:26;;;;;;;26.00;14.25;;;;;;;1.90;100.00;102644.34;4957313;29;20035;-81
2023/01/03 04:55:53;;;;;;;33.55;14.50;;;;;;;1.88;100.00;102635.00;4940054;29;20023;-82
2023/01/03 04:58:19;;;;;;;27.77;15.30;;;;;;;1.68;100.00;102605.25;4957284;29;20042;-84
2023/01/03 05:00:45;;;;;;;25.80;14.60;;;;;;;1.63;100.00;102590.78;4957054;29;20019;-84
2023/01/03 05:03:11;;;;;;;28.48;15.20;;;;;;;2.01;100.00;102646.91;4957110;29;20368;-85
2023/01/03 05:05:37;;;;;;;25.25;14.68;;;;;;;1.95;100.00;102637.53;4957049;29;20035;-85
2023/01/03 05:08:04;;;;;;;28.38;15.00;;;;;;;2.15;100.00;102646.91;4957405;29;20078;-83
2023/01/03 05:10:33;;;;;;;24.33;14.55;;;;;;;2.15;100.00;102632.47;4940025;29;20514;-81
2023/01/03 05:12:59;;;;;;;26.80;15.48;;;;;;;2.29;100.00;102651.19;4939601;29;20157;-80
2023/01/03 05:15:29;;;;;;;30.92;15.85;;;;;;;2.32;100.00;102642.69;4957003;29;20058;-81
2023/01/03 05:17:54;;;;;;;25.48;15.23;;;;;;;2.32;100.00;102640.13;4956773;29;20031;-81
2023/01/03 05:25:50;;;;;;;27.98;16.35;;;;;;;2.15;100.00;102575.56;4957276;29;20120;-81
2023/01/03 05:28:18;;;;;;;25.75;16.92;;;;;;;2.45;100.00;102640.97;4956767;29;20078;-81
2023/01/03 05:30:44;;;;;;;31.52;17.85;;;;;;;2.23;100.00;102604.44;4956841;29;20435;-81
2023/01/03 05:33:09;;;;;;;29.92;16.90;;;;;;;2.33;100.00;102629.09;4956492;29;20031;-81
2023/01/03 05:35:34;;;;;;;30.33;16.35;;;;;;;2.28;100.00;102630.78;4956605;29;20031;-80
2023/01/03 05:38:00;;;;;;;36.22;17.85;;;;;;;2.28;100.00;102630.78;4939552;29;20027;-80
2023/01/03 05:40:27;;;;;;;29.85;17.10;;;;;;;2.22;100.00;102628.22;4939179;29;20394;-81
2023/01/03 05:42:53;;;;;;;28.88;16.48;;;;;;;2.22;100.00;102629.09;4956484;29;20032;-81
2023/01/03 05:45:24;;;;;;;30.90;16.95;;;;;;;2.18;100.00;102624.00;4955974;29;20019;-80
2023/01/03 05:47:49;;;;;;;29.35;17.15;;;;;;;2.19;100.00;102625.69;4956568;29;20102;-81
2023/01/03 05:50:14;;;;;;;28.17;17.38;;;;;;;2.15;100.00;102623.97;4956398;29;20182;-81
2023/01/03 05:52:40;;;;;;;30.35;16.75;;;;;;;1.57;100.00;102540.69;4956489;29;20027;-81
2023/01/03 05:55:05;;;;;;;29.67;17.38;;;;;;;2.01;100.00;102617.19;4956123;29;20114;-81
2023/01/03 05:57:31;;;;;;;27.52;17.23;;;;;;;1.62;100.00;102558.53;4956342;29;20074;-81
2023/01/03 05:59:56;;;;;;;27.42;16.90;;;;;;;1.82;100.00;102602.72;4939054;29;20031;-81
2023/01/03 06:02:21;;;;;;;31.35;17.45;;;;;;;1.98;100.00;102623.97;4955536;28;20159;-81
2023/01/03 06:04:47;;;;;;;30.15;16.33;;;;;;;1.96;100.00;102616.31;4956395;29;20035;-82
2023/01/03 06:07:12;;;;;;;30.17;17.73;;;;;;;2.03;100.00;102613.78;4956268;29;20038;-82
2023/01/03 06:09:37;;;;;;;33.80;17.23;;;;;;;2.12;100.00;102617.19;4956097;29;20125;-83
2023/01/03 06:12:03;;;;;;;30.27;17.70;;;;;;;2.11;100.00;102614.63;4955986;29;20551;-81
2023/01/03 06:14:28;;;;;;;30.50;17.73;;;;;;;2.15;100.00;102616.31;4955905;29;20033;-81
2023/01/03 06:19:37;;;;;;;31.27;19.00;;;;;;;1.98;100.00;102567.94;4955925;29;20051;-82
2023/01/03 06:22:03;;;;;;;32.63;17.75;;;;;;;1.90;100.00;102552.63;4955722;29;20479;-82
2023/01/03 06:24:28;;;;;;;35.67;17.92;;;;;;;2.37;100.00;102607.00;4938521;29;20047;-83
2023/01/03 06:26:53;;;;;;;36.97;20.40;;;;;;;2.43;100.00;102605.28;4937901;29;20039;-81
2023/01/03 06:29:19;;;;;;;38.25;21.48;;;;;;;2.54;100.00;102603.56;4955455;29;20549;-82
2023/01/03 06:31:44;;;;;;;42.40;23.58;;;;;;;2.61;100.00;102614.63;4955400;29;20031;-81
2023/01/03 06:34:09;;;;;;;46.95;23.80;;;;;;;2.61;100.00;102608.66;4955471;29;20023;-83
2023/01/03 06:36:35;;;;;;;40.38;20.60;;;;;;;2.48;100.00;102577.25;4955751;29;20037;-82
2023/01/03 06:39:01;;;;;;;37.00;19.15;;;;;;;2.59;100.00;102585.72;4955852;29;20037;-82
2023/01/03 06:41:26;;;;;;;28.65;17.17;;;;;;;2.44;100.00;102550.03;4955351;29;20023;-82
2023/01/03 06:43:54;;;;;;;28.55;15.00;;;;;;;2.73;100.00;102603.53;4955466;29;20031;-84
2023/01/03 06:54:35;;;;;;;27.60;14.68;;;;;;;2.54;100.00;102579.78;4955375;29;20103;-83
2023/01/03 06:57:01;;;;;;;29.05;14.55;;;;;;;2.55;100.00;102594.22;4938146;29;20047;-82
2023/01/03 06:59:27;;;;;;;23.75;14.57;;;;;;;2.49;100.00;102589.13;4955311;29;20034;-81
2023/01/03 07:01:53;;;;;;;24.23;14.73;;;;;;;2.23;100.00;102554.31;4955315;29;20027;-84
2023/01/03 07:04:20;;;;;;;26.42;13.85;;;;;;;2.34;100.00;102578.94;4955097;29;20054;-84
2023/01/03 07:06:46;;;;;;;23.42;12.80;;;;;;;2.40;100.00;102582.34;4955106;29;20066;-82
2023/01/03 07:09:12;;;;;;;26.65;15.35;;;;;;;2.40;100.00;102591.69;4954817;29;20440;-81
2023/01/03 07:11:38;;;;;;;24.33;13.85;;;;;;;2.32;100.00;102581.50;4954745;29;20031;-82
2023/01/03 07:14:05;;;;;;;27.45;14.13;;;;;;;2.36;100.00;102583.22;4954237;28;20051;-81
2023/01/03 07:16:34;;;;;;;24.08;14.05;;;;;;;2.15;100.00;102560.25;4955093;29;20059;-81
2023/01/03 07:19:00;;;;;;;27.15;14.32;;;;;;;2.34;100.00;102595.09;4954824;29;20391;-80
2023/01/03 07:21:28;;;;;;;27.98;14.77;;;;;;;2.08;100.00;102561.97;4954732;29;20102;-83
2023/01/03 07:23:55;;;;;;;25.48;13.80;;;;;;;2.08;100.00;102554.34;4954607;29;20047;-83
2023/01/03 07:26:23;;;;;;;25.42;14.20;;;;;;;2.45;100.00;102618.88;4937400;29;20035;-84
2023/01/03 07:28:49;;;;;;;30.77;15.30;;;;;;;2.46;100.00;102604.41;4937157;29;20057;-83
2023/01/03 07:31:14;;;;;;;28.33;15.52;;;;;;;2.59;100.00;102594.22;4954781;29;20475;-83
2023/01/03 07:33:39;;;;;;;30.63;15.80;;;;;;;2.61;100.00;102591.66;4954494;29;20023;-83
2023/01/03 07:36:08;;;;;;;28.90;15.93;;;;;;;2.70;100.00;102580.59;4954590;29;20070;-81
2023/01/03 07:38:34;;;;;;;26.92;14.70;;;;;;;2.99;100.00;102611.16;4954491;29;20435;-84
2023/01/03 07:41:00;;;;;;;30.20;16.15;;;;;;;3.05;100.00;102619.66;4954582;29;20093;-82
2023/01/03 07:43:38;;;;;;;29.48;14.82;;;;;;;3.13;100.00;102620.44;4954595;29;20023;-84
2023/01/03 07:46:07;;;;;;;26.85;15.43;;;;;;;3.13;100.00;102604.28;4954819;29;20069;-82
2023/01/03 07:48:33;;;;;;;28.30;14.45;;;;;;;3.28;100.00;102621.25;4953769;29;20475;-83
2023/01/03 07:50:59;;;;;;;25.35;14.68;;;;;;;3.11;100.00;102578.75;4955183;29;20031;-83
2023/01/03 07:53:25;;;;;;;27.63;14.25;;;;;;;3.42;100.00;102611.81;4954899;29;20059;-83
2023/01/03 07:55:50;;;;;;;28.15;13.93;;;;;;;3.48;100.00;102624.56;4954259;29;20494;-82
2023/01/03 07:58:15;;;;;;;26.55;14.00;;;;;;;3.55;100.00;102630.50;4954358;29;20035;-83
2023/01/03 08:00:41;;;;;;;28.38;15.23;;;;;;;3.32;100.00;102579.53;4954713;29;20027;-83
2023/01/03 08:03:07;;;;;;;27.08;14.98;;;;;;;3.34;100.00;102577.81;4954338;29;20035;-82
2023/01/03 08:05:34;;;;;;;32.33;15.10;;;;;;;3.38;100.00;102582.06;4954397;29;20475;-84
2023/01/03 08:08:00;;;;;;;29.70;15.32;;;;;;;3.68;100.00;102630.44;4954400;29;20031;-82
2023/01/03 08:13:18;;;;;;;24.67;13.50;;;;;;;3.77;100.00;102638.91;4954606;29;20069;-83
2023/01/03 08:15:46;;;;;;;31.02;15.45;;;;;;;3.91;100.00;102647.31;4954350;29;20090;-83
2023/01/03 08:18:12;;;;;;;33.40;15.68;;;;;;;4.00;100.00;102649.81;4954123;29;20041;-84
2023/01/03 08:20:37;;;;;;;33.67;16.48;;;;;;;3.99;100.00;102638.75;4954080;29;20031;-82
2023/01/03 08:23:03;;;;;;;28.67;16.55;;;;;;;4.10;100.00;102650.59;4961084;23;20055;-82
2023/01/03 08:25:28;;;;;;;37.00;18.05;;;;;;;4.03;100.00;102630.22;4957211;28;20032;-82
2023/01/03 08:27:57;;;;;;;33.20;16.52;;;;;;;4.14;100.00;102636.97;4957116;29;20166;-79
2023/01/03 08:30:27;;;;;;;33.92;17.13;;;;;;;4.05;100.00;102617.44;4958315;29;20038;-81
2023/01/03 08:32:54;;;;;;;30.60;17.20;;;;;;;4.20;100.00;102624.97;4957700;29;20476;-80
2023/01/03 08:35:22;;;;;;;30.85;18.40;;;;;;;4.47;100.00;102664.81;4957472;29;20102;-80
2023/01/03 08:37:49;;;;;;;30.75;17.85;;;;;;;4.06;100.00;102580.78;4957519;29;20081;-78
2023/01/03 08:40:16;;;;;;;31.45;18.25;;;;;;;4.44;100.00;102643.56;4957583;29;20159;-82
2023/01/03 08:42:43;;;;;;;30.40;16.40;;;;;;;4.44;100.00;102628.19;4957884;29;20030;-81
2023/01/03 08:45:12;;;;;;;29.52;17.65;;;;;;;4.56;100.00;102649.41;4957619;29;20034;-81
2023/01/03 08:47:38;;;;;;;29.80;16.13;;;;;;;4.69;100.00;102669.75;4957599;29;20023;-81
2023/01/03 08:50:04;;;;;;;31.13;16.77;;;;;;;4.39;100.00;102619.69;4957321;29;20093;-82
2023/01/03 08:52:29;;;;;;;30.38;16.92;;;;;;;4.78;100.00;102669.66;4957530;29;20038;-81
2023/01/03 08:54:55;;;;;;;34.38;17.73;;;;;;;4.67;100.00;102651.84;4956539;29;20490;-81
2023/01/03 08:57:20;;;;;;;35.20;20.02;;;;;;;4.62;100.00;102635.69;4958151;29;20023;-82
2023/01/03 08:59:45;;;;;;;33.53;20.23;;;;;;;4.92;100.00;102677.19;4957436;29;20467;-79
2023/01/03 09:02:11;;;;;;;34.97;20.73;;;;;;;4.84;100.00;102660.22;4956907;29;20031;-81
2023/01/03 09:04:36;;;;;;;33.17;19.52;;;;;;;4.98;100.00;102680.56;4957357;29;20145;-83
2023/01/03 09:07:02;;;;;;;29.88;17.63;;;;;;;4.89;100.00;102655.06;4957263;29;20039;-82
2023/01/03 09:09:27;;;;;;;29.58;17.15;;;;;;;5.07;100.00;102671.94;4957129;29;20062;-84
2023/01/03 09:11:52;;;;;;;31.55;16.58;;;;;;;5.13;100.00;102687.25;4957327;29;20038;-83
2023/01/03 09:14:18;;;;;;;31.48;16.13;;;;;;;5.08;100.00;102665.94;4957013;29;20027;-82
2023/01/03 09:16:43;;;;;;;29.42;17.08;;;;;;;4.95;100.00;102643.91;4956922;29;20469;-83
2023/01/03 09:19:09;;;;;;;26.35;15.52;;;;;;;5.20;100.00;102681.19;4956694;29;20110;-82
2023/01/03 09:21:34;;;;;;;29.45;15.43;;;;;;;4.85;100.00;102618.41;4956682;29;20055;-83
2023/01/03 09:23:59;;;;;;;26.95;14.98;;;;;;;5.28;100.00;102679.38;4956859;29;20024;-80
2023/01/03 09:26:25;;;;;;;28.20;16.45;;;;;;;5.33;100.00;102681.91;4956866;29;20450;-82
2023/01/03 09:28:50;;;;;;;28.33;15.38;;;;;;;5.26;100.00;102665.75;4939506;29;20522;-79
2023/01/03 09:31:16;;;;;;;28.00;16.13;;;;;;;5.31;100.00;102658.88;4956619;29;20416;-80
2023/01/03 09:33:41;;;;;;;31.75;16.13;;;;;;;5.48;100.00;102680.00;4956766;29;20038;-79
2023/01/03 09:36:07;;;;;;;29.27;14.77;;;;;;;5.18;100.00;102618.88;4956299;28;20114;-79
2023/01/03 09:38:33;;;;;;;28.27;16.33;;;;;;;5.54;100.00;102673.97;4956575;29;20372;-77
2023/01/03 09:41:02;;;;;;;28.55;15.82;;;;;;;5.56;100.00;102684.19;4956786;29;20031;-78
2023/01/03 09:43:42;;;;;;;32.70;17.30;;;;;;;5.53;100.00;102666.31;4956687;29;20063;-79
2023/01/03 09:46:19;;;;;;;28.08;15.02;;;;;;;5.49;100.00;102655.22;4956290;29;20154;-79
2023/01/03 09:48:47;;;;;;;26.75;14.75;;;;;;;5.55;100.00;102662.84;4956291;29;20098;-78
2023/01/03 10:06:04;;;;;;;27.02;14.38;;;;;;;5.65;100.00;102649.03;4956332;29;20041;-81
2023/01/03 10:08:51;;;;;;;20.83;12.43;;;;;;;5.88;100.00;102668.38;4955948;29;20546;-80
2023/01/03 10:11:38;;;;;;;27.48;12.45;;;;;;;5.91;100.00;102668.41;4956119;29;20039;-80
2023/01/03 10:14:10;;;;;;;23.30;13.45;;;;;;;5.95;100.00;102665.75;4955945;29;20035;-80
2023/01/03 10:16:35;;;;;;;23.23;12.98;;;;;;;6.06;100.00;102662.19;4956234;29;20478;-80
2023/01/03 10:19:27;;;;;;;23.75;13.00;;;;;;;6.14;100.00;102663.75;4956181;29;20114;-80
2023/01/03 10:22:20;;;;;;;24.60;12.95;;;;;;;6.18;100.00;102656.84;4955545;29;20047;-80
2023/01/03 10:24:49;;;;;;;21.83;11.90;;;;;;;6.22;100.00;102661.09;4938447;29;20462;-80
2023/01/03 10:27:24;;;;;;;21.63;11.20;;;;;;;6.39;100.00;102674.50;4955611;29;20058;-80
2023/01/03 10:29:54;;;;;;;22.60;11.70;;;;;;;6.35;100.00;102657.44;4955874;29;20031;-80
2023/01/03 10:33:05;;;;;;;21.63;11.30;;;;;;;6.41;100.00;102651.38;4955677;29;20023;-81
2023/01/03 10:35:35;;;;;;;20.42;10.10;;;;;;;6.57;100.00;102657.94;4953748;29;20043;-79
2023/01/03 10:38:01;;;;;;;18.27;10.32;;;;;;;6.54;100.00;102627.19;4956249;29;20023;-79
2023/01/03 10:40:40;;;;;;;15.93;9.10;;;;;;;6.61;100.00;102637.34;4955587;29;20031;-80
2023/01/03 10:43:28;;;;;;;20.45;10.70;;;;;;;6.67;100.00;102638.94;4954886;29;20059;-79
2023/01/03 10:46:04;;;;;;;18.73;9.82;;;;;;;6.55;100.00;102632.28;4955266;29;20509;-81
2023/01/03 10:48:37;;;;;;;18.20;9.57;;;;;;;6.74;100.00;102655.09;4954797;28;20038;-80
2023/01/03 10:51:05;;;;;;;19.02;9.52;;;;;;;6.75;100.00;102657.63;4955592;29;20024;-79
2023/01/03 10:53:38;;;;;;;19.08;9.85;;;;;;;6.67;100.00;102638.94;4955554;29;20106;-81
2023/01/03 10:56:04;;;;;;;18.67;9.57;;;;;;;6.71;100.00;102655.16;4955228;29;20418;-79
2023/01/03 10:58:29;;;;;;;17.52;10.25;;;;;;;6.69;100.00;102659.47;4955073;29;20019;-80
2023/01/03 11:01:10;;;;;;;20.52;10.57;;;;;;;6.60;100.00;102643.34;4955195;29;20395;-79
2023/01/03 11:03:38;;;;;;;19.08;10.00;;;;;;;6.68;100.00;102656.03;4937612;29;20038;-79
2023/01/03 11:06:04;;;;;;;16.73;10.50;;;;;;;6.68;100.00;102668.00;4954937;29;20034;-81
2023/01/03 11:08:38;;;;;;;18.02;11.00;;;;;;;6.66;100.00;102656.94;4954933;29;20043;-81
2023/01/03 11:11:03;;;;;;;19.73;11.98;;;;;;;6.51;100.00;102627.25;4955039;29;20039;-81
2023/01/03 11:13:37;;;;;;;16.13;10.20;;;;;;;6.67;100.00;102668.91;4955066;29;20480;-81
2023/01/03 11:16:12;;;;;;;16.17;9.63;;;;;;;6.59;100.00;102651.09;4955174;29;20063;-79
2023/01/03 11:18:40;;;;;;;17.73;10.40;;;;;;;6.56;100.00;102639.13;4955001;29;20020;-81
2023/01/03 11:21:24;;;;;;;20.02;12.73;;;;;;;6.74;100.00;102665.34;4954698;29;20221;-80
2023/01/03 11:24:02;;;;;;;22.10;13.98;;;;;;;6.79;100.00;102656.72;4954820;29;20035;-81
2023/01/03 11:26:44;;;;;;;22.13;13.40;;;;;;;6.85;100.00;102654.00;4954958;29;20033;-79
2023/01/03 11:29:12;;;;;;;;;;;;;;;6.90;100.00;102653.94;4955161;29;20059;-81
2023/01/03 11:31:51;;;;;;;16.33;11.27;;;;;;;6.89;100.00;102649.69;4954709;29;19914;-84
2023/01/03 11:34:29;;;;;;;17.40;10.77;;;;;;;6.87;100.00;102646.28;4954569;29;20023;-82
2023/01/03 11:37:17;;;;;;;15.10;9.55;;;;;;;6.87;100.00;102649.69;4947699;29;20067;-82
2023/01/03 11:39:54;;;;;;;16.45;10.00;;;;;;;6.85;100.00;102645.47;4936132;29;20379;-80
2023/01/03 11:42:32;;;;;;;20.98;11.07;;;;;;;6.86;100.00;102644.59;4918603;29;20028;-81
2023/01/03 11:45:23;;;;;;;17.02;10.40;;;;;;;6.77;100.00;102634.47;4935419;29;20098;-79
2023/01/03 11:48:10;;;;;;;18.77;11.25;;;;;;;6.89;100.00;102647.13;4935595;29;20106;-77
2023/01/03 11:51:07;;;;;;;14.60;10.52;;;;;;;6.86;100.00;102642.03;4935524;29;20035;-80
2023/01/03 11:54:04;;;;;;;16.67;10.30;;;;;;;6.87;100.00;102633.44;4935766;29;20023;-77
2023/01/03 11:56:42;;;;;;;17.98;9.98;;;;;;;6.86;100.00;102608.63;4932486;29;20412;-80
2023/01/03 11:59:26;;;;;;;13.68;9.00;;;;;;;7.03;100.00;102618.59;4935855;29;20070;-75
2023/01/03 12:02:20;;;;;;;15.05;8.65;;;;;;;7.10;100.00;102620.19;4921999;29;20564;-78
2023/01/03 12:05:07;;;;;;;16.25;8.30;;;;;;;7.22;100.00;102622.50;4939185;29;20062;-80
2023/01/03 12:07:59;;;;;;;13.52;8.60;;;;;;;7.31;100.00;102617.16;4939066;29;20380;-78
2023/01/03 12:10:54;;;;;;;15.48;8.63;;;;;;;7.32;100.00;102607.72;4939035;29;20478;-78
2023/01/03 12:13:39;;;;;;;27.70;8.93;;;;;;;7.17;100.00;102602.00;4938990;29;20110;-81
2023/01/03 12:16:32;;;;;;;13.63;7.35;;;;;;;7.17;100.00;102616.59;4939087;29;20504;-78
2023/01/03 12:18:57;;;;;;;13.05;7.82;;;;;;;7.11;100.00;102604.72;4939034;29;20031;-77
2023/01/03 12:21:37;;;;;;;18.80;7.85;;;;;;;7.12;100.00;102603.00;4938577;29;20028;-77
2023/01/03 12:24:19;;;;;;;12.32;6.78;;;;;;;7.04;100.00;102564.63;4939069;29;20036;-75
2023/01/03 12:26:53;;;;;;;10.95;6.60;;;;;;;7.27;100.00;102592.38;4938670;29;20036;-79
2023/01/03 12:29:47;;;;;;;13.88;6.85;;;;;;;7.14;100.00;102558.41;4921374;29;20115;-80
2023/01/03 12:32:26;;;;;;;12.32;6.50;;;;;;;7.42;100.00;102594.66;4917679;29;20040;-78